createdAt,value
2022-08-05T00:00:17.271Z,101162.00
2022-08-05T00:02:51.525Z,101157.81
2022-08-05T00:06:02.699Z,101152.44
2022-08-05T00:08:32.603Z,101160.31
2022-08-05T00:11:00.215Z,101162.88
2022-08-05T00:13:38.082Z,101168.31
2022-08-05T00:16:09.612Z,101173.53
2022-08-05T00:18:42.088Z,101182.78
2022-08-05T00:21:10.281Z,101181.31
2022-08-05T00:23:46.267Z,101183.56
2022-08-05T00:26:21.991Z,101178.56
2022-08-05T00:28:50.469Z,101184.69
2022-08-05T00:31:53.064Z,101183.44
2022-08-05T00:34:53.258Z,101184.53
2022-08-05T00:37:11.071Z,101182.84
2022-08-05T00:39:44.282Z,101194.72
2022-08-05T00:42:33.106Z,101187.44
2022-08-05T00:45:01.038Z,101194.41
2022-08-05T00:47:53.160Z,101202.47
2022-08-05T00:50:16.606Z,101195.88
2022-08-05T00:52:45.521Z,101196.97
2022-08-05T00:55:15.972Z,101198.00
2022-08-05T00:57:58.720Z,101197.19
2022-08-05T01:00:27.937Z,101214.66
2022-08-05T01:02:56.104Z,101215.31
2022-08-05T01:05:24.365Z,101207.34
2022-08-05T01:08:40.188Z,101195.47
2022-08-05T01:10:51.633Z,101185.69
2022-08-05T01:13:59.010Z,101184.00
2022-08-05T01:16:26.219Z,101185.28
2022-08-05T01:19:05.592Z,101183.13
2022-08-05T01:22:08.015Z,101184.69
2022-08-05T01:24:57.413Z,101192.19
2022-08-05T01:27:55.621Z,101189.31
2022-08-05T01:30:33.820Z,101185.44
2022-08-05T01:33:08.330Z,101167.53
2022-08-05T01:35:52.038Z,101163.25
2022-08-05T01:38:24.694Z,101175.19
2022-08-05T01:40:58.705Z,101180.63
2022-08-05T01:43:28.958Z,101196.69
2022-08-05T01:46:07.362Z,101193.47
2022-08-05T01:48:49.472Z,101186.13
2022-08-05T01:51:19.033Z,101178.28
2022-08-05T01:53:56.899Z,101180.59
2022-08-05T01:58:11.072Z,101191.91
2022-08-05T01:59:22.039Z,101209.69
2022-08-05T02:01:55.732Z,101217.75
2022-08-05T02:04:28.677Z,101235.53
2022-08-05T02:06:58.697Z,101248.78
2022-08-05T02:09:27.096Z,101257.22
2022-08-05T02:12:04.208Z,101270.81
2022-08-05T02:14:34.503Z,101284.94
2022-08-05T02:17:07.949Z,101289.91
2022-08-05T02:19:49.294Z,101304.03
2022-08-05T02:22:25.588Z,101298.34
2022-08-05T02:25:00.064Z,101298.13
2022-08-05T02:27:58.586Z,101298.34
2022-08-05T02:30:19.083Z,101300.97
2022-08-05T02:32:51.601Z,101291.00
2022-08-05T02:35:27.933Z,101283.72
2022-08-05T02:38:00.278Z,101276.63
2022-08-05T02:40:31.150Z,101272.41
2022-08-05T02:43:00.792Z,101272.41
2022-08-05T02:45:52.738Z,101268.50
2022-08-05T02:48:20.495Z,101262.97
2022-08-05T02:50:59.614Z,101248.94
2022-08-05T02:53:39.103Z,101250.03
2022-08-05T02:56:09.321Z,101245.59
2022-08-05T02:58:38.406Z,101232.50
2022-08-05T03:01:16.078Z,101217.97
2022-08-05T03:04:03.413Z,101181.69
2022-08-05T03:06:56.562Z,101161.69
2022-08-05T03:09:37.519Z,101164.34
2022-08-05T03:12:08.098Z,101146.84
2022-08-05T03:14:45.652Z,101126.88
2022-08-05T03:17:14.026Z,101108.56
2022-08-05T03:19:45.532Z,101110.88
2022-08-05T03:22:16.388Z,101118.88
2022-08-05T03:24:49.046Z,101139.28
2022-08-05T03:27:19.389Z,101159.00
2022-08-05T03:30:07.746Z,101189.75
2022-08-05T03:32:35.547Z,101209.16
2022-08-05T03:35:06.389Z,101211.81
2022-08-05T03:37:40.999Z,101194.34
2022-08-05T03:40:24.580Z,101193.34
2022-08-05T03:43:01.474Z,101217.81
2022-08-05T03:45:57.606Z,101223.25
2022-08-05T03:48:27.007Z,101232.19
2022-08-05T03:52:34.963Z,101236.66
2022-08-05T03:55:53.869Z,101243.22
2022-08-05T03:56:47.748Z,101246.00
2022-08-05T03:59:20.933Z,101254.22
2022-08-05T04:01:52.177Z,101249.66
2022-08-05T04:04:22.286Z,101252.78
2022-08-05T04:06:56.657Z,101248.03
2022-08-05T04:09:26.542Z,101245.69
2022-08-05T04:11:56.375Z,101239.38
2022-08-05T04:14:30.147Z,101238.78
2022-08-05T04:17:00.441Z,101233.94
2022-08-05T04:19:29.030Z,101231.16
2022-08-05T04:22:10.119Z,101214.53
2022-08-05T04:24:44.076Z,101207.38
2022-08-05T04:27:12.382Z,101215.38
2022-08-05T04:29:40.391Z,101208.00
2022-08-05T04:32:08.900Z,101197.16
2022-08-05T04:34:42.679Z,101202.44
2022-08-05T04:37:12.710Z,101188.03
2022-08-05T04:39:40.758Z,101201.50
2022-08-05T04:42:09.496Z,101218.25
2022-08-05T04:44:37.459Z,101207.25
2022-08-05T04:47:09.533Z,101206.97
2022-08-05T04:50:02.599Z,101216.69
2022-08-05T04:52:38.145Z,101224.50
2022-08-05T04:55:14.497Z,101213.59
2022-08-05T04:57:47.937Z,101219.47
2022-08-05T05:00:23.617Z,101222.09
2022-08-05T05:02:51.722Z,101219.06
2022-08-05T05:05:28.247Z,101226.53
2022-08-05T05:08:02.508Z,101231.09
2022-08-05T05:10:33.300Z,101219.53
2022-08-05T05:13:04.345Z,101225.63
2022-08-05T05:15:57.395Z,101229.88
2022-08-05T05:18:31.242Z,101222.75
2022-08-05T05:21:03.282Z,101224.16
2022-08-05T05:23:39.310Z,101228.59
2022-08-05T05:26:28.835Z,101237.28
2022-08-05T05:29:00.715Z,101238.41
2022-08-05T05:31:35.765Z,101246.09
2022-08-05T05:34:02.333Z,101252.78
2022-08-05T05:36:30.956Z,101257.44
2022-08-05T05:39:03.849Z,101254.31
2022-08-05T05:41:40.528Z,101255.16
2022-08-05T05:44:35.485Z,101264.59
2022-08-05T05:46:58.342Z,101269.41
2022-08-05T05:49:32.009Z,101268.41
2022-08-05T05:52:01.266Z,101259.97
2022-08-05T05:54:51.077Z,101270.69
2022-08-05T05:57:19.838Z,101278.63
2022-08-05T05:59:48.767Z,101283.06
2022-08-05T06:02:17.224Z,101306.75
2022-08-05T06:05:01.216Z,101298.56
2022-08-05T06:07:41.548Z,101295.19
2022-08-05T06:10:11.845Z,101293.22
2022-08-05T06:12:42.256Z,101297.09
2022-08-05T06:15:16.204Z,101300.53
2022-08-05T06:17:53.324Z,101302.16
2022-08-05T06:20:22.348Z,101298.41
2022-08-05T06:22:50.755Z,101313.00
2022-08-05T06:25:25.055Z,101335.00
2022-08-05T06:28:11.728Z,101334.44
2022-08-05T06:30:48.866Z,101313.44
2022-08-05T06:33:19.031Z,101295.47
2022-08-05T06:36:07.684Z,101294.72
2022-08-05T06:38:36.831Z,101305.00
2022-08-05T06:41:08.015Z,101315.44
2022-08-05T06:43:59.012Z,101318.75
2022-08-05T06:46:30.233Z,101327.91
2022-08-05T06:48:59.348Z,101321.75
2022-08-05T06:51:29.467Z,101320.91
2022-08-05T06:53:58.965Z,101327.06
2022-08-05T06:56:28.237Z,101322.13
2022-08-05T06:58:56.126Z,101322.84
2022-08-05T07:01:32.069Z,101319.19
2022-08-05T07:04:01.340Z,101329.81
2022-08-05T07:06:30.238Z,101340.50
2022-08-05T07:08:59.532Z,101336.06
2022-08-05T07:11:37.017Z,101343.63
2022-08-05T07:14:29.717Z,101347.38
2022-08-05T07:17:58.677Z,101344.00
2022-08-05T07:22:36.917Z,101379.59
2022-08-05T07:25:54.287Z,101385.66
2022-08-05T07:28:03.921Z,101384.66
2022-08-05T07:30:38.517Z,101394.63
2022-08-05T07:33:10.658Z,101396.63
2022-08-05T07:36:05.227Z,101398.31
2022-08-05T07:38:34.054Z,101396.03
2022-08-05T07:42:08.541Z,101397.50
2022-08-05T07:43:57.461Z,101387.03
2022-08-05T07:46:26.777Z,101392.53
2022-08-05T07:49:04.306Z,101396.00
2022-08-05T07:51:48.991Z,101395.84
2022-08-05T07:54:26.586Z,101399.34
2022-08-05T07:57:14.734Z,101412.88
2022-08-05T07:59:48.988Z,101408.34
2022-08-05T08:02:18.080Z,101411.75
2022-08-05T08:04:47.707Z,101416.03
2022-08-05T08:07:17.853Z,101423.94
2022-08-05T08:09:46.110Z,101432.00
2022-08-05T08:12:35.158Z,101436.50
2022-08-05T08:15:04.608Z,101434.84
2022-08-05T08:17:32.970Z,101432.00
2022-08-05T08:20:43.889Z,101437.53
2022-08-05T08:22:53.237Z,101439.50
2022-08-05T08:25:27.158Z,101442.25
2022-08-05T08:28:18.542Z,101448.41
2022-08-05T08:31:01.547Z,101442.03
2022-08-05T08:33:37.751Z,101452.91
2022-08-05T08:36:38.218Z,101457.19
2022-08-05T08:38:57.011Z,101463.19
2022-08-05T08:41:52.215Z,101462.47
2022-08-05T08:45:19.417Z,101463.22
2022-08-05T08:47:46.879Z,101466.50
2022-08-05T08:50:23.110Z,101469.09
2022-08-05T08:52:51.755Z,101473.28
2022-08-05T08:56:03.175Z,101481.94
2022-08-05T08:58:12.981Z,101476.06
2022-08-05T09:00:42.928Z,101485.22
2022-08-05T09:03:16.316Z,101488.59
2022-08-05T09:06:09.189Z,101477.69
2022-08-05T09:08:40.037Z,101479.13
2022-08-05T09:11:13.687Z,101480.69
2022-08-05T09:14:00.680Z,101490.50
2022-08-05T09:16:31.036Z,101489.03
2022-08-05T09:19:00.234Z,101494.09
2022-08-05T09:22:22.171Z,101495.69
2022-08-05T09:24:17.798Z,101504.06
2022-08-05T09:26:51.861Z,101503.03
2022-08-05T09:29:20.200Z,101513.69
2022-08-05T09:32:45.857Z,101518.94
2022-08-05T09:34:55.322Z,101525.34
2022-08-05T09:38:13.054Z,101535.44
2022-08-05T09:40:31.302Z,101529.00
2022-08-05T09:43:00.375Z,101523.25
2022-08-05T09:46:07.570Z,101520.13
2022-08-05T09:48:29.535Z,101533.59
2022-08-05T09:51:00.668Z,101534.25
2022-08-05T09:53:54.703Z,101549.50
2022-08-05T09:56:26.249Z,101556.78
2022-08-05T09:58:58.105Z,101552.69
2022-08-05T10:01:32.047Z,101551.50
2022-08-05T10:04:03.562Z,101551.94
2022-08-05T10:06:34.070Z,101557.75
2022-08-05T10:09:24.956Z,101567.88
2022-08-05T10:12:30.053Z,101581.03
2022-08-05T10:15:13.797Z,101577.94
2022-08-05T10:17:54.486Z,101579.13
2022-08-05T10:20:25.179Z,101578.25
2022-08-05T10:22:54.568Z,101577.53
2022-08-05T10:25:26.308Z,101570.78
2022-08-05T10:28:13.166Z,101572.84
2022-08-05T10:32:59.315Z,101578.16
2022-08-05T10:33:35.183Z,101577.78
2022-08-05T10:36:04.905Z,101590.84
2022-08-05T10:38:36.195Z,101589.81
2022-08-05T10:41:14.600Z,101591.13
2022-08-05T10:43:56.577Z,101589.47
2022-08-05T10:46:44.630Z,101598.22
2022-08-05T10:49:16.766Z,101603.88
2022-08-05T10:51:59.851Z,101603.66
2022-08-05T10:54:56.431Z,101599.81
2022-08-05T10:57:30.888Z,101605.88
2022-08-05T11:00:19.850Z,101608.06
2022-08-05T11:03:23.805Z,101603.63
2022-08-05T11:06:15.213Z,101604.63
2022-08-05T11:09:32.386Z,101606.41
2022-08-05T11:12:50.347Z,101605.19
2022-08-05T11:16:00.475Z,101610.13
2022-08-05T11:18:26.977Z,101602.91
2022-08-05T11:20:57.392Z,101603.13
2022-08-05T11:24:03.181Z,101610.81
2022-08-05T11:26:28.207Z,101600.81
2022-08-05T11:29:06.757Z,101598.81
2022-08-05T11:31:54.230Z,101602.91
2022-08-05T11:34:50.985Z,101603.31
2022-08-05T11:38:30.194Z,101607.66
2022-08-05T11:41:34.701Z,101605.41
2022-08-05T11:44:06.032Z,101612.31
2022-08-05T11:47:10.225Z,101618.00
2022-08-05T11:49:27.254Z,101606.09
2022-08-05T11:51:57.706Z,101606.06
2022-08-05T11:54:33.383Z,101612.09
2022-08-05T11:57:08.372Z,101613.38
2022-08-05T11:59:52.054Z,101600.72
2022-08-05T12:02:31.963Z,101601.09
2022-08-05T12:05:07.203Z,101607.00
2022-08-05T12:08:08.521Z,101605.25
2022-08-05T12:10:43.273Z,101609.84
2022-08-05T12:13:15.799Z,101624.19
2022-08-05T12:15:49.819Z,101620.72
2022-08-05T12:18:20.619Z,101620.81
2022-08-05T12:20:52.070Z,101627.25
2022-08-05T12:23:19.793Z,101624.53
2022-08-05T12:25:52.496Z,101623.34
2022-08-05T12:28:37.123Z,101619.41
2022-08-05T12:31:06.627Z,101624.91
2022-08-05T12:33:38.793Z,101627.44
2022-08-05T12:36:09.194Z,101632.88
2022-08-05T12:38:39.610Z,101637.81
2022-08-05T12:41:13.354Z,101630.06
2022-08-05T12:43:52.695Z,101638.38
2022-08-05T12:46:28.064Z,101637.19
2022-08-05T12:49:13.263Z,101652.28
2022-08-05T12:52:14.355Z,101649.19
2022-08-05T12:54:34.067Z,101652.19
2022-08-05T12:57:04.448Z,101658.09
2022-08-05T13:00:08.715Z,101665.09
2022-08-05T13:02:33.011Z,101672.38
2022-08-05T13:05:07.605Z,101671.09
2022-08-05T13:07:59.547Z,101670.94
2022-08-05T13:10:24.158Z,101673.19
2022-08-05T13:12:58.516Z,101675.81
2022-08-05T13:15:41.076Z,101685.09
2022-08-05T13:18:10.507Z,101676.44
2022-08-05T13:20:40.445Z,101683.50
2022-08-05T13:23:08.599Z,101687.78
2022-08-05T13:25:52.744Z,101693.06
2022-08-05T13:28:24.115Z,101694.34
2022-08-05T13:30:53.097Z,101695.22
2022-08-05T13:34:23.041Z,101696.91
2022-08-05T13:36:11.125Z,101696.44
2022-08-05T13:38:43.061Z,101701.09
2022-08-05T13:41:11.268Z,101701.38
2022-08-05T13:43:44.247Z,101695.78
2022-08-05T13:46:37.781Z,101704.03
2022-08-05T13:49:11.516Z,101695.34
2022-08-05T13:51:46.148Z,101700.56
2022-08-05T13:54:15.892Z,101708.03
2022-08-05T13:56:51.235Z,101702.25
2022-08-05T13:59:24.070Z,101712.44
2022-08-05T14:01:56.796Z,101714.50
2022-08-05T14:04:43.860Z,101711.31
2022-08-05T14:07:25.439Z,101711.94
2022-08-05T14:10:12.048Z,101708.56
2022-08-05T14:12:42.679Z,101720.56
2022-08-05T14:16:08.517Z,101719.16
2022-08-05T14:18:00.738Z,101717.91
2022-08-05T14:20:29.454Z,101720.63
2022-08-05T14:22:58.704Z,101721.59
2022-08-05T14:25:28.090Z,101726.88
2022-08-05T14:27:56.744Z,101722.84
2022-08-05T14:30:27.982Z,101726.78
2022-08-05T14:32:56.702Z,101724.75
2022-08-05T14:35:49.921Z,101722.19
2022-08-05T14:38:31.833Z,101730.47
2022-08-05T14:41:06.249Z,101736.50
2022-08-05T14:43:57.619Z,101734.16
2022-08-05T14:46:28.410Z,101744.69
2022-08-05T14:48:57.797Z,101740.53
2022-08-05T14:51:30.815Z,101741.75
2022-08-05T14:54:27.919Z,101739.69
2022-08-05T14:56:48.804Z,101741.53
2022-08-05T14:59:21.211Z,101742.31
2022-08-05T15:01:49.914Z,101745.50
2022-08-05T15:04:20.542Z,101752.41
2022-08-05T15:06:51.029Z,101762.00
2022-08-05T15:09:54.106Z,101756.63
2022-08-05T15:12:11.671Z,101755.34
2022-08-05T15:14:49.609Z,101766.03
2022-08-05T15:17:47.302Z,101749.22
2022-08-05T15:20:15.670Z,101762.16
2022-08-05T15:22:52.134Z,101759.28
2022-08-05T15:25:51.501Z,101751.94
2022-08-05T15:28:13.386Z,101772.22
2022-08-05T15:30:43.451Z,101770.00
2022-08-05T15:33:11.964Z,101762.38
2022-08-05T15:35:45.473Z,101772.38
2022-08-05T15:38:33.952Z,101772.66
2022-08-05T15:41:23.358Z,101776.34
2022-08-05T15:43:50.849Z,101772.22
2022-08-05T15:46:20.435Z,101770.84
2022-08-05T15:48:58.700Z,101772.03
2022-08-05T15:52:03.982Z,101767.06
2022-08-05T15:54:17.952Z,101777.03
2022-08-05T15:56:47.087Z,101769.44
2022-08-05T15:59:21.806Z,101776.19
2022-08-05T16:01:52.901Z,101784.22
2022-08-05T16:04:25.409Z,101774.84
2022-08-05T16:06:54.027Z,101777.03
2022-08-05T16:09:23.593Z,101774.63
2022-08-05T16:11:53.801Z,101772.03
2022-08-05T16:14:22.282Z,101781.97
2022-08-05T16:16:50.990Z,101785.88
2022-08-05T16:20:03.307Z,101775.53
2022-08-05T16:22:10.612Z,101790.50
2022-08-05T16:24:41.626Z,101778.94
2022-08-05T16:27:46.934Z,101787.38
2022-08-05T16:30:25.593Z,101788.53
2022-08-05T16:32:54.339Z,101790.22
2022-08-05T16:35:27.625Z,101796.44
2022-08-05T16:38:03.553Z,101798.28
2022-08-05T16:40:51.846Z,101799.38
2022-08-05T16:43:25.594Z,101805.59
2022-08-05T16:46:03.762Z,101805.72
2022-08-05T16:48:38.946Z,101817.34
2022-08-05T16:51:09.235Z,101816.22
2022-08-05T16:54:03.991Z,101827.56
2022-08-05T16:56:27.198Z,101829.28
2022-08-05T16:58:56.689Z,101831.69
2022-08-05T17:01:24.892Z,101820.94
2022-08-05T17:03:52.818Z,101827.44
2022-08-05T17:06:20.931Z,101832.09
2022-08-05T17:08:54.473Z,101833.91
2022-08-05T17:11:25.105Z,101842.00
2022-08-05T17:13:54.700Z,101840.06
2022-08-05T17:16:36.433Z,101845.63
2022-08-05T17:19:07.313Z,101851.09
2022-08-05T17:21:37.247Z,101857.41
2022-08-05T17:24:18.481Z,101853.78
2022-08-05T17:26:55.568Z,101853.31
2022-08-05T17:29:32.816Z,101850.44
2022-08-05T17:32:03.310Z,101853.63
2022-08-05T17:34:32.260Z,101853.91
2022-08-05T17:37:04.449Z,101859.50
2022-08-05T17:39:33.983Z,101868.00
2022-08-05T17:42:19.137Z,101867.44
2022-08-05T17:44:50.271Z,101874.59
2022-08-05T17:47:22.122Z,101878.91
2022-08-05T17:50:00.117Z,101890.44
2022-08-05T17:52:32.453Z,101874.84
2022-08-05T17:55:00.606Z,101884.41
2022-08-05T17:57:31.327Z,101888.59
2022-08-05T18:00:03.822Z,101892.38
2022-08-05T18:02:35.554Z,101888.22
2022-08-05T18:05:07.552Z,101899.75
2022-08-05T18:07:41.781Z,101909.59
2022-08-05T18:10:11.594Z,101904.09
2022-08-05T18:12:48.373Z,101918.09
2022-08-05T18:15:16.251Z,101918.72
2022-08-05T18:18:01.596Z,101920.03
2022-08-05T18:20:32.681Z,101926.69
2022-08-05T18:23:11.417Z,101922.16
2022-08-05T18:25:44.040Z,101931.69
2022-08-05T18:28:16.613Z,101947.41
2022-08-05T18:30:45.299Z,101938.22
2022-08-05T18:33:14.784Z,101940.97
2022-08-05T18:35:49.388Z,101951.53
2022-08-05T18:38:19.384Z,101946.03
2022-08-05T18:41:53.267Z,101944.84
2022-08-05T18:43:43.224Z,101958.34
2022-08-05T18:46:20.294Z,101956.38
2022-08-05T18:48:52.304Z,101958.91
2022-08-05T18:52:02.739Z,101964.41
2022-08-05T18:54:25.529Z,101972.31
2022-08-05T18:56:53.316Z,101972.19
2022-08-05T18:59:42.840Z,101973.97
2022-08-05T19:02:11.254Z,101977.00
2022-08-05T19:05:02.671Z,101972.84
2022-08-05T19:07:45.578Z,101984.03
2022-08-05T19:10:14.905Z,101988.53
2022-08-05T19:12:43.308Z,101993.28
2022-08-05T19:15:56.788Z,101998.97
2022-08-05T19:18:10.213Z,102008.66
2022-08-05T19:20:46.949Z,102009.47
2022-08-05T19:23:22.649Z,102016.06
2022-08-05T19:26:03.227Z,102021.59
2022-08-05T19:28:32.882Z,102030.47
2022-08-05T19:31:01.356Z,102032.44
2022-08-05T19:33:36.169Z,102030.38
2022-08-05T19:36:07.019Z,102035.03
2022-08-05T19:38:35.661Z,102037.88
2022-08-05T19:41:07.037Z,102049.66
2022-08-05T19:44:05.653Z,102045.00
2022-08-05T19:46:30.305Z,102048.50
2022-08-05T19:49:01.227Z,102059.56
2022-08-05T19:52:05.390Z,102069.72
2022-08-05T19:54:27.165Z,102070.75
2022-08-05T19:56:59.982Z,102072.88
2022-08-05T19:59:55.306Z,102072.06
2022-08-05T20:02:18.886Z,102086.50
2022-08-05T20:04:48.485Z,102090.50
2022-08-05T20:07:48.826Z,102087.78
2022-08-05T20:10:11.804Z,102095.97
2022-08-05T20:12:46.023Z,102093.28
2022-08-05T20:15:15.899Z,102095.03
2022-08-05T20:18:10.750Z,102110.44
2022-08-05T20:20:55.822Z,102111.34
2022-08-05T20:23:39.873Z,102116.00
2022-08-05T20:26:17.189Z,102118.94
2022-08-05T20:28:47.938Z,102122.03
2022-08-05T20:31:16.475Z,102117.53
2022-08-05T20:33:45.157Z,102118.69
2022-08-05T20:36:14.338Z,102126.13
2022-08-05T20:38:54.524Z,102125.88
2022-08-05T20:41:27.404Z,102128.41
2022-08-05T20:44:17.551Z,102135.59
2022-08-05T20:46:47.538Z,102136.59
2022-08-05T20:49:24.213Z,102149.34
2022-08-05T20:51:54.278Z,102150.00
2022-08-05T20:54:25.314Z,102158.94
2022-08-05T20:56:53.229Z,102156.88
2022-08-05T20:59:26.466Z,102165.19
2022-08-05T21:01:57.974Z,102165.19
2022-08-05T21:04:26.906Z,102164.19
2022-08-05T21:06:55.822Z,102170.63
2022-08-05T21:09:25.083Z,102170.69
2022-08-05T21:12:09.748Z,102159.06
2022-08-05T21:14:38.840Z,102165.41
2022-08-05T21:17:06.809Z,102177.19
2022-08-05T21:19:46.939Z,102179.19
2022-08-05T21:22:18.332Z,102178.53
2022-08-05T21:24:51.908Z,102180.28
2022-08-05T21:27:20.655Z,102182.97
2022-08-05T21:29:54.046Z,102179.47
2022-08-05T21:32:23.441Z,102189.88
2022-08-05T21:34:56.045Z,102185.38
2022-08-05T21:37:41.472Z,102191.16
2022-08-05T21:40:14.189Z,102189.16
2022-08-05T21:42:45.642Z,102192.72
2022-08-05T21:45:24.271Z,102194.81
2022-08-05T21:47:57.084Z,102200.06
2022-08-05T21:50:26.048Z,102200.09
2022-08-05T21:52:58.915Z,102200.06
2022-08-05T21:56:01.758Z,102198.22
2022-08-05T21:58:24.805Z,102203.66
2022-08-05T22:00:58.620Z,102202.00
2022-08-05T22:03:48.634Z,102203.00
2022-08-05T22:06:14.178Z,102203.19
2022-08-05T22:08:42.450Z,102195.16
2022-08-05T22:11:15.613Z,102197.00
2022-08-05T22:14:33.837Z,102205.13
2022-08-05T22:16:42.080Z,102212.38
2022-08-05T22:20:02.075Z,102209.72
2022-08-05T22:22:08.732Z,102208.00
2022-08-05T22:24:55.846Z,102216.03
2022-08-05T22:28:09.061Z,102225.03
2022-08-05T22:30:32.157Z,102218.81
2022-08-05T22:33:03.469Z,102222.53
2022-08-05T22:35:47.900Z,102223.44
2022-08-05T22:38:16.996Z,102230.69
2022-08-05T22:40:50.011Z,102233.38
2022-08-05T22:43:36.872Z,102235.22
2022-08-05T22:46:13.206Z,102238.19
2022-08-05T22:48:50.865Z,102243.56
2022-08-05T22:51:22.979Z,102249.94
2022-08-05T22:53:57.669Z,102250.84
2022-08-05T22:56:30.703Z,102247.28
2022-08-05T22:59:03.129Z,102257.25
2022-08-05T23:02:03.815Z,102255.50
2022-08-05T23:04:21.126Z,102253.72
2022-08-05T23:06:49.005Z,102256.47
2022-08-05T23:09:27.308Z,102267.34
2022-08-05T23:12:05.582Z,102267.47
2022-08-05T23:14:35.256Z,102264.78
2022-08-05T23:17:24.215Z,102271.19
2022-08-05T23:20:02.416Z,102268.53
2022-08-05T23:22:30.815Z,102279.38
2022-08-05T23:24:59.262Z,102279.41
2022-08-05T23:27:28.839Z,102283.97
2022-08-05T23:30:01.707Z,102279.53
2022-08-05T23:32:35.817Z,102288.63
2022-08-05T23:35:03.618Z,102293.16
2022-08-05T23:37:34.318Z,102292.25
2022-08-05T23:40:07.872Z,102297.66
2022-08-05T23:42:37.828Z,102303.09
2022-08-05T23:45:14.082Z,102296.88
2022-08-05T23:47:47.667Z,102296.03
2022-08-05T23:50:17.143Z,102306.91
2022-08-05T23:52:50.482Z,102303.34
2022-08-05T23:55:19.852Z,102307.91
2022-08-05T23:57:52.721Z,102304.34
